sensor_id;sensor_type;location;lat;lon;timestamp;pressure;altitude;pressure_sealevel;temperature;humidity
49341;BME280;35209;51.050;13.678;2023-02-18T00:04:54;100132.06;;;8.57;100.00
49341;BME280;35209;51.050;13.678;2023-02-18T00:09:55;100136.16;;;8.69;100.00
49341;BME280;35209;51.050;13.678;2023-02-18T00:14:57;100130.53;;;8.47;100.00
49341;BME280;35209;51.050;13.678;2023-02-18T00:19:59;100126.81;;;8.57;100.00
49341;BME280;35209;51.050;13.678;2023-02-18T00:25:01;100120.56;;;8.64;100.00
49341;BME280;35209;51.050;13.678;2023-02-18T00:30:03;100122.13;;;8.71;100.00
49341;BME280;35209;51.050;13.678;2023-02-18T00:35:07;100131.94;;;8.62;100.00
49341;BME280;35209;51.050;13.678;2023-02-18T00:40:09;100136.16;;;8.69;100.00
49341;BME280;35209;51.050;13.678;2023-02-18T00:45:11;100135.97;;;8.76;100.00
49341;BME280;35209;51.050;13.678;2023-02-18T00:50:13;100126.88;;;8.54;100.00
49341;BME280;35209;51.050;13.678;2023-02-18T00:55:14;100135.31;;;8.67;100.00
49341;BME280;35209;51.050;13.678;2023-02-18T01:00:16;100136.75;;;8.81;100.00
49341;BME280;35209;51.050;13.678;2023-02-18T01:05:19;100124.25;;;8.55;100.00
49341;BME280;35209;51.050;13.678;2023-02-18T01:10:21;100141.81;;;8.50;100.00
49341;BME280;35209;51.050;13.678;2023-02-18T01:15:23;100137.88;;;8.70;100.00
49341;BME280;35209;51.050;13.678;2023-02-18T01:20:25;100149.53;;;8.56;100.00
49341;BME280;35209;51.050;13.678;2023-02-18T01:25:27;100155.88;;;8.46;100.00
49341;BME280;35209;51.050;13.678;2023-02-18T01:30:29;100146.00;;;8.57;100.00
49341;BME280;35209;51.050;13.678;2023-02-18T01:35:31;100132.31;;;8.46;100.00
49341;BME280;35209;51.050;13.678;2023-02-18T01:40:34;100142.47;;;8.60;98.50
49341;BME280;35209;51.050;13.678;2023-02-18T01:45:45;100134.78;;;8.52;95.59
49341;BME280;35209;51.050;13.678;2023-02-18T01:50:55;100133.25;;;8.42;93.21
49341;BME280;35209;51.050;13.678;2023-02-18T01:55:59;100133.41;;;8.33;91.39
49341;BME280;35209;51.050;13.678;2023-02-18T02:01:02;100133.28;;;8.41;87.27
49341;BME280;35209;51.050;13.678;2023-02-18T02:06:13;100127.88;;;8.48;85.01
49341;BME280;35209;51.050;13.678;2023-02-18T02:16:37;100153.47;;;8.34;84.40
49341;BME280;35209;51.050;13.678;2023-02-18T02:27:25;100142.84;;;8.43;84.82
49341;BME280;35209;51.050;13.678;2023-02-18T02:38:04;100135.13;;;8.37;85.47
49341;BME280;35209;51.050;13.678;2023-02-18T02:53:40;100149.44;;;8.18;86.43
49341;BME280;35209;51.050;13.678;2023-02-18T02:58:49;100140.56;;;8.25;84.37
49341;BME280;35209;51.050;13.678;2023-02-18T03:10:05;100139.53;;;8.32;79.51
49341;BME280;35209;51.050;13.678;2023-02-18T03:14:53;100150.00;;;8.32;79.48
49341;BME280;35209;51.050;13.678;2023-02-18T03:25:07;100152.91;;;8.18;79.95
49341;BME280;35209;51.050;13.678;2023-02-18T03:30:15;100143.13;;;8.28;79.19
49341;BME280;35209;51.050;13.678;2023-02-18T03:35:19;100145.47;;;8.43;77.58
49341;BME280;35209;51.050;13.678;2023-02-18T03:40:20;100150.28;;;8.18;80.38
49341;BME280;35209;51.050;13.678;2023-02-18T03:45:24;100143.19;;;8.25;80.12
49341;BME280;35209;51.050;13.678;2023-02-18T03:50:25;100139.88;;;8.17;82.02
49341;BME280;35209;51.050;13.678;2023-02-18T03:55:27;100139.16;;;8.08;82.86
49341;BME280;35209;51.050;13.678;2023-02-18T04:00:29;100133.63;;;8.24;80.81
49341;BME280;35209;51.050;13.678;2023-02-18T04:05:31;100144.38;;;8.08;82.73
49341;BME280;35209;51.050;13.678;2023-02-18T04:10:32;100147.91;;;8.07;82.90
49341;BME280;35209;51.050;13.678;2023-02-18T04:15:34;100144.47;;;8.04;83.43
49341;BME280;35209;51.050;13.678;2023-02-18T04:20:36;100147.84;;;8.11;84.08
49341;BME280;35209;51.050;13.678;2023-02-18T04:25:37;100148.09;;;7.98;85.82
49341;BME280;35209;51.050;13.678;2023-02-18T04:30:40;100142.97;;;8.35;85.18
49341;BME280;35209;51.050;13.678;2023-02-18T04:35:41;100146.00;;;8.16;89.12
49341;BME280;35209;51.050;13.678;2023-02-18T04:40:43;100130.31;;;8.14;89.64
49341;BME280;35209;51.050;13.678;2023-02-18T04:45:45;100135.03;;;8.40;86.02
49341;BME280;35209;51.050;13.678;2023-02-18T04:50:47;100135.97;;;8.36;84.65
49341;BME280;35209;51.050;13.678;2023-02-18T04:55:50;100141.47;;;8.22;84.19
49341;BME280;35209;51.050;13.678;2023-02-18T05:00:52;100137.34;;;8.12;85.00
49341;BME280;35209;51.050;13.678;2023-02-18T05:05:54;100139.09;;;8.12;85.70
49341;BME280;35209;51.050;13.678;2023-02-18T05:10:56;100141.72;;;8.12;86.02
49341;BME280;35209;51.050;13.678;2023-02-18T05:15:58;100141.81;;;8.07;86.89
49341;BME280;35209;51.050;13.678;2023-02-18T05:20:59;100126.53;;;8.27;86.18
49341;BME280;35209;51.050;13.678;2023-02-18T05:26:01;100118.63;;;8.30;86.31
49341;BME280;35209;51.050;13.678;2023-02-18T05:31:03;100114.44;;;8.22;88.10
49341;BME280;35209;51.050;13.678;2023-02-18T05:36:05;100108.78;;;8.00;90.40
49341;BME280;35209;51.050;13.678;2023-02-18T05:41:07;100100.53;;;8.18;91.54
49341;BME280;35209;51.050;13.678;2023-02-18T05:46:09;100096.91;;;7.83;96.04
49341;BME280;35209;51.050;13.678;2023-02-18T05:51:11;100085.59;;;7.81;99.24
49341;BME280;35209;51.050;13.678;2023-02-18T05:56:13;100084.97;;;7.69;100.00
49341;BME280;35209;51.050;13.678;2023-02-18T06:01:15;100087.75;;;7.59;100.00
49341;BME280;35209;51.050;13.678;2023-02-18T06:06:16;100074.41;;;7.73;100.00
49341;BME280;35209;51.050;13.678;2023-02-18T06:11:18;100079.53;;;7.79;100.00
49341;BME280;35209;51.050;13.678;2023-02-18T06:16:20;100084.69;;;8.26;100.00
49341;BME280;35209;51.050;13.678;2023-02-18T06:21:22;100078.34;;;7.94;100.00
49341;BME280;35209;51.050;13.678;2023-02-18T06:26:24;100078.31;;;7.97;100.00
49341;BME280;35209;51.050;13.678;2023-02-18T06:31:26;100073.16;;;7.93;100.00
49341;BME280;35209;51.050;13.678;2023-02-18T06:36:28;100076.94;;;7.78;100.00
49341;BME280;35209;51.050;13.678;2023-02-18T06:41:30;100074.78;;;7.98;100.00
49341;BME280;35209;51.050;13.678;2023-02-18T06:46:32;100070.66;;;7.88;100.00
49341;BME280;35209;51.050;13.678;2023-02-18T06:51:33;100062.03;;;7.81;100.00
49341;BME280;35209;51.050;13.678;2023-02-18T06:56:35;100062.25;;;7.71;100.00
49341;BME280;35209;51.050;13.678;2023-02-18T07:01:37;100065.75;;;7.71;100.00
49341;BME280;35209;51.050;13.678;2023-02-18T07:06:39;100058.00;;;7.65;100.00
49341;BME280;35209;51.050;13.678;2023-02-18T07:11:40;100055.72;;;7.47;100.00
49341;BME280;35209;51.050;13.678;2023-02-18T07:16:42;100047.97;;;7.42;100.00
49341;BME280;35209;51.050;13.678;2023-02-18T07:21:44;100034.81;;;7.48;100.00
49341;BME280;35209;51.050;13.678;2023-02-18T07:26:46;100036.06;;;7.72;100.00
49341;BME280;35209;51.050;13.678;2023-02-18T07:31:47;100020.22;;;7.80;100.00
49341;BME280;35209;51.050;13.678;2023-02-18T07:36:49;100005.94;;;7.51;100.00
49341;BME280;35209;51.050;13.678;2023-02-18T07:41:51;100010.28;;;7.52;100.00
49341;BME280;35209;51.050;13.678;2023-02-18T07:46:52;100001.28;;;7.66;100.00
49341;BME280;35209;51.050;13.678;2023-02-18T07:51:54;100009.41;;;7.53;100.00
49341;BME280;35209;51.050;13.678;2023-02-18T07:56:56;99987.97;;;7.78;100.00
49341;BME280;35209;51.050;13.678;2023-02-18T08:01:58;99987.34;;;7.67;100.00
49341;BME280;35209;51.050;13.678;2023-02-18T08:07:00;99975.44;;;7.92;100.00
49341;BME280;35209;51.050;13.678;2023-02-18T08:12:01;99974.25;;;7.67;100.00
49341;BME280;35209;51.050;13.678;2023-02-18T08:17:03;99961.69;;;7.84;100.00
49341;BME280;35209;51.050;13.678;2023-02-18T08:22:05;99955.38;;;7.93;100.00
49341;BME280;35209;51.050;13.678;2023-02-18T08:27:07;99954.78;;;7.80;100.00
49341;BME280;35209;51.050;13.678;2023-02-18T08:32:09;99935.53;;;7.82;100.00
49341;BME280;35209;51.050;13.678;2023-02-18T08:37:11;99921.78;;;7.73;100.00
49341;BME280;35209;51.050;13.678;2023-02-18T08:42:12;99911.38;;;7.71;100.00
49341;BME280;35209;51.050;13.678;2023-02-18T08:47:14;99907.47;;;7.89;100.00
49341;BME280;35209;51.050;13.678;2023-02-18T08:52:36;99906.44;;;7.96;100.00
49341;BME280;35209;51.050;13.678;2023-02-18T08:57:38;99889.78;;;8.38;100.00
49341;BME280;35209;51.050;13.678;2023-02-18T09:02:39;99884.41;;;8.42;100.00
49341;BME280;35209;51.050;13.678;2023-02-18T09:07:41;99876.09;;;8.23;100.00
49341;BME280;35209;51.050;13.678;2023-02-18T09:12:43;99866.81;;;8.10;100.00
49341;BME280;35209;51.050;13.678;2023-02-18T09:17:45;99848.78;;;7.99;100.00
49341;BME280;35209;51.050;13.678;2023-02-18T09:22:47;99853.31;;;8.28;100.00
49341;BME280;35209;51.050;13.678;2023-02-18T09:27:48;99843.06;;;8.19;100.00
49341;BME280;35209;51.050;13.678;2023-02-18T09:32:50;99825.97;;;8.40;100.00
49341;BME280;35209;51.050;13.678;2023-02-18T09:37:52;99811.88;;;9.08;100.00
49341;BME280;35209;51.050;13.678;2023-02-18T09:42:55;99803.78;;;9.98;100.00
49341;BME280;35209;51.050;13.678;2023-02-18T09:47:58;99802.97;;;10.24;100.00
49341;BME280;35209;51.050;13.678;2023-02-18T09:53:02;99790.44;;;10.32;100.00
49341;BME280;35209;51.050;13.678;2023-02-18T09:58:18;99778.84;;;10.38;100.00
49341;BME280;35209;51.050;13.678;2023-02-18T10:03:22;99770.41;;;10.53;100.00
49341;BME280;35209;51.050;13.678;2023-02-18T10:08:31;99756.69;;;10.45;100.00
49341;BME280;35209;51.050;13.678;2023-02-18T10:13:34;99746.72;;;10.30;100.00
49341;BME280;35209;51.050;13.678;2023-02-18T10:18:48;99750.72;;;10.15;100.00
49341;BME280;35209;51.050;13.678;2023-02-18T10:24:20;99730.50;;;10.17;100.00
49341;BME280;35209;51.050;13.678;2023-02-18T10:29:26;99731.88;;;10.29;100.00
49341;BME280;35209;51.050;13.678;2023-02-18T10:34:41;99715.59;;;10.43;100.00
49341;BME280;35209;51.050;13.678;2023-02-18T10:40:08;99720.13;;;10.39;100.00
49341;BME280;35209;51.050;13.678;2023-02-18T10:51:27;99695.78;;;10.57;100.00
49341;BME280;35209;51.050;13.678;2023-02-18T10:56:32;99687.44;;;10.70;100.00
49341;BME280;35209;51.050;13.678;2023-02-18T11:01:35;99679.69;;;10.89;100.00
49341;BME280;35209;51.050;13.678;2023-02-18T11:06:45;99657.44;;;10.97;100.00
49341;BME280;35209;51.050;13.678;2023-02-18T11:11:47;99653.03;;;11.20;100.00
49341;BME280;35209;51.050;13.678;2023-02-18T11:17:25;99624.34;;;11.35;100.00
49341;BME280;35209;51.050;13.678;2023-02-18T11:22:30;99608.75;;;11.31;100.00
49341;BME280;35209;51.050;13.678;2023-02-18T11:27:41;99610.16;;;11.40;100.00
49341;BME280;35209;51.050;13.678;2023-02-18T11:32:45;99617.00;;;11.64;97.41
49341;BME280;35209;51.050;13.678;2023-02-18T11:37:50;99590.34;;;11.72;95.98
49341;BME280;35209;51.050;13.678;2023-02-18T11:43:04;99595.34;;;11.78;93.80
49341;BME280;35209;51.050;13.678;2023-02-18T11:48:21;99589.16;;;11.79;93.11
49341;BME280;35209;51.050;13.678;2023-02-18T11:53:36;99577.38;;;11.67;94.94
49341;BME280;35209;51.050;13.678;2023-02-18T11:58:40;99578.38;;;11.65;95.33
49341;BME280;35209;51.050;13.678;2023-02-18T12:04:15;99576.06;;;11.57;96.56
49341;BME280;35209;51.050;13.678;2023-02-18T12:14:21;99569.56;;;11.25;100.00
49341;BME280;35209;51.050;13.678;2023-02-18T12:45:49;99562.41;;;11.06;100.00
49341;BME280;35209;51.050;13.678;2023-02-18T12:51:07;99558.56;;;10.71;100.00
49341;BME280;35209;51.050;13.678;2023-02-18T13:01:30;99553.34;;;10.49;100.00
49341;BME280;35209;51.050;13.678;2023-02-18T13:12:23;99560.91;;;10.57;100.00
49341;BME280;35209;51.050;13.678;2023-02-18T13:17:33;99538.94;;;10.58;95.99
49341;BME280;35209;51.050;13.678;2023-02-18T13:22:37;99531.06;;;10.80;95.06
49341;BME280;35209;51.050;13.678;2023-02-18T13:27:44;99537.97;;;10.82;93.84
49341;BME280;35209;51.050;13.678;2023-02-18T13:43:52;99538.94;;;10.13;96.71
49341;BME280;35209;51.050;13.678;2023-02-18T13:49:08;99542.72;;;10.05;95.75
49341;BME280;35209;51.050;13.678;2023-02-18T13:54:27;99542.38;;;10.15;94.60
49341;BME280;35209;51.050;13.678;2023-02-18T13:59:36;99557.03;;;10.20;93.67
49341;BME280;35209;51.050;13.678;2023-02-18T14:09:45;99535.09;;;10.21;90.39
49341;BME280;35209;51.050;13.678;2023-02-18T14:14:47;99545.00;;;10.15;90.39
49341;BME280;35209;51.050;13.678;2023-02-18T14:35:46;99551.44;;;10.06;89.14
49341;BME280;35209;51.050;13.678;2023-02-18T14:51:09;99585.84;;;10.22;84.99
49341;BME280;35209;51.050;13.678;2023-02-18T14:56:17;99577.81;;;10.28;84.72
49341;BME280;35209;51.050;13.678;2023-02-18T15:01:23;99597.53;;;10.15;87.79
49341;BME280;35209;51.050;13.678;2023-02-18T15:06:31;99601.34;;;10.06;91.09
49341;BME280;35209;51.050;13.678;2023-02-18T15:11:36;99610.22;;;9.78;97.69
49341;BME280;35209;51.050;13.678;2023-02-18T15:16:39;99603.94;;;9.57;100.00
49341;BME280;35209;51.050;13.678;2023-02-18T15:21:43;99591.28;;;9.69;99.29
49341;BME280;35209;51.050;13.678;2023-02-18T15:26:48;99592.03;;;9.72;97.44
49341;BME280;35209;51.050;13.678;2023-02-18T15:31:54;99608.41;;;10.04;90.20
49341;BME280;35209;51.050;13.678;2023-02-18T15:37:05;99616.34;;;10.02;89.24
49341;BME280;35209;51.050;13.678;2023-02-18T15:47:24;99623.13;;;10.33;84.11
49341;BME280;35209;51.050;13.678;2023-02-18T15:52:32;99615.94;;;10.38;82.78
49341;BME280;35209;51.050;13.678;2023-02-18T15:57:35;99622.78;;;10.42;82.59
49341;BME280;35209;51.050;13.678;2023-02-18T16:02:51;99618.06;;;10.28;84.47
49341;BME280;35209;51.050;13.678;2023-02-18T16:07:59;99611.19;;;10.24;84.89
49341;BME280;35209;51.050;13.678;2023-02-18T16:13:02;99622.97;;;10.38;83.38
49341;BME280;35209;51.050;13.678;2023-02-18T16:18:06;99617.13;;;10.29;83.88
49341;BME280;35209;51.050;13.678;2023-02-18T16:23:13;99644.81;;;10.15;85.73
49341;BME280;35209;51.050;13.678;2023-02-18T16:28:24;99656.59;;;10.28;85.20
49341;BME280;35209;51.050;13.678;2023-02-18T16:33:28;99661.84;;;10.28;84.12
49341;BME280;35209;51.050;13.678;2023-02-18T16:38:30;99662.94;;;10.21;85.29
49341;BME280;35209;51.050;13.678;2023-02-18T16:43:32;99652.63;;;10.16;85.48
49341;BME280;35209;51.050;13.678;2023-02-18T16:48:36;99664.63;;;10.23;84.74
49341;BME280;35209;51.050;13.678;2023-02-18T16:53:41;99666.28;;;10.26;83.98
49341;BME280;35209;51.050;13.678;2023-02-18T16:58:46;99684.31;;;10.37;82.80
49341;BME280;35209;51.050;13.678;2023-02-18T17:03:49;99675.63;;;10.34;82.91
49341;BME280;35209;51.050;13.678;2023-02-18T17:08:51;99684.25;;;10.38;83.07
49341;BME280;35209;51.050;13.678;2023-02-18T17:13:54;99681.25;;;10.24;86.61
49341;BME280;35209;51.050;13.678;2023-02-18T17:18:57;99699.69;;;9.97;89.63
49341;BME280;35209;51.050;13.678;2023-02-18T17:23:59;99717.00;;;10.03;89.21
49341;BME280;35209;51.050;13.678;2023-02-18T17:29:02;99706.19;;;9.85;92.18
49341;BME280;35209;51.050;13.678;2023-02-18T17:34:08;99727.81;;;9.67;93.78
49341;BME280;35209;51.050;13.678;2023-02-18T17:39:15;99713.44;;;9.79;94.53
49341;BME280;35209;51.050;13.678;2023-02-18T17:44:20;99728.44;;;9.75;93.22
49341;BME280;35209;51.050;13.678;2023-02-18T17:49:23;99733.84;;;9.71;93.02
49341;BME280;35209;51.050;13.678;2023-02-18T17:54:24;99749.34;;;9.78;91.85
49341;BME280;35209;51.050;13.678;2023-02-18T17:59:28;99748.41;;;9.79;92.59
49341;BME280;35209;51.050;13.678;2023-02-18T18:04:31;99768.66;;;9.76;92.42
49341;BME280;35209;51.050;13.678;2023-02-18T18:09:33;99775.00;;;9.95;89.50
49341;BME280;35209;51.050;13.678;2023-02-18T18:14:35;99763.88;;;10.14;85.81
49341;BME280;35209;51.050;13.678;2023-02-18T18:19:37;99770.66;;;10.21;85.65
49341;BME280;35209;51.050;13.678;2023-02-18T18:24:39;99789.72;;;10.27;83.95
49341;BME280;35209;51.050;13.678;2023-02-18T18:29:41;99803.03;;;10.21;85.19
49341;BME280;35209;51.050;13.678;2023-02-18T18:34:43;99815.75;;;10.07;88.17
49341;BME280;35209;51.050;13.678;2023-02-18T18:39:49;99821.53;;;9.92;91.96
49341;BME280;35209;51.050;13.678;2023-02-18T18:44:51;99814.69;;;9.86;92.48
49341;BME280;35209;51.050;13.678;2023-02-18T18:49:53;99816.00;;;9.73;95.62
49341;BME280;35209;51.050;13.678;2023-02-18T18:54:55;99810.66;;;9.76;93.15
49341;BME280;35209;51.050;13.678;2023-02-18T18:59:56;99803.44;;;9.82;92.32
49341;BME280;35209;51.050;13.678;2023-02-18T19:04:59;99806.09;;;9.81;92.42
49341;BME280;35209;51.050;13.678;2023-02-18T19:10:01;99806.94;;;9.83;91.64
49341;BME280;35209;51.050;13.678;2023-02-18T19:15:03;99808.81;;;9.78;91.02
49341;BME280;35209;51.050;13.678;2023-02-18T19:20:05;99820.06;;;9.83;90.28
49341;BME280;35209;51.050;13.678;2023-02-18T19:25:07;99826.03;;;9.88;89.85
49341;BME280;35209;51.050;13.678;2023-02-18T19:30:20;99817.22;;;9.89;89.85
49341;BME280;35209;51.050;13.678;2023-02-18T19:35:26;99827.81;;;9.86;90.20
49341;BME280;35209;51.050;13.678;2023-02-18T19:40:29;99824.63;;;9.76;91.60
49341;BME280;35209;51.050;13.678;2023-02-18T19:45:33;99838.69;;;9.74;92.24
49341;BME280;35209;51.050;13.678;2023-02-18T19:50:36;99831.41;;;9.55;93.32
49341;BME280;35209;51.050;13.678;2023-02-18T19:55:40;99846.66;;;9.43;94.10
49341;BME280;35209;51.050;13.678;2023-02-18T20:00:42;99831.66;;;9.48;94.46
49341;BME280;35209;51.050;13.678;2023-02-18T20:05:45;99844.16;;;9.40;96.44
49341;BME280;35209;51.050;13.678;2023-02-18T20:10:58;99843.25;;;9.41;97.19
49341;BME280;35209;51.050;13.678;2023-02-18T20:16:00;99853.94;;;9.33;97.94
49341;BME280;35209;51.050;13.678;2023-02-18T20:21:02;99847.69;;;9.39;97.28
49341;BME280;35209;51.050;13.678;2023-02-18T20:26:11;99851.50;;;9.27;97.84
49341;BME280;35209;51.050;13.678;2023-02-18T20:31:15;99853.81;;;9.38;96.59
49341;BME280;35209;51.050;13.678;2023-02-18T20:36:17;99851.25;;;9.36;96.92
49341;BME280;35209;51.050;13.678;2023-02-18T20:41:21;99856.56;;;9.33;97.16
49341;BME280;35209;51.050;13.678;2023-02-18T20:46:23;99863.31;;;9.42;96.63
49341;BME280;35209;51.050;13.678;2023-02-18T20:51:25;99875.91;;;9.30;97.22
49341;BME280;35209;51.050;13.678;2023-02-18T20:56:27;99863.53;;;9.34;96.85
49341;BME280;35209;51.050;13.678;2023-02-18T21:01:29;99858.56;;;9.25;97.21
49341;BME280;35209;51.050;13.678;2023-02-18T21:06:31;99863.06;;;9.20;96.71
49341;BME280;35209;51.050;13.678;2023-02-18T21:11:33;99860.91;;;9.34;94.53
49341;BME280;35209;51.050;13.678;2023-02-18T21:16:38;99861.78;;;9.34;94.19
49341;BME280;35209;51.050;13.678;2023-02-18T21:21:43;99866.06;;;9.37;95.45
49341;BME280;35209;51.050;13.678;2023-02-18T21:26:47;99861.53;;;9.44;96.35
49341;BME280;35209;51.050;13.678;2023-02-18T21:31:49;99865.78;;;9.46;97.14
49341;BME280;35209;51.050;13.678;2023-02-18T21:36:51;99875.44;;;9.46;97.50
49341;BME280;35209;51.050;13.678;2023-02-18T21:41:52;99876.00;;;9.55;97.01
49341;BME280;35209;51.050;13.678;2023-02-18T21:46:54;99881.66;;;9.42;99.52
49341;BME280;35209;51.050;13.678;2023-02-18T21:51:56;99861.66;;;9.39;100.00
49341;BME280;35209;51.050;13.678;2023-02-18T21:57:00;99847.72;;;9.37;100.00
49341;BME280;35209;51.050;13.678;2023-02-18T22:02:05;99857.38;;;9.05;100.00
49341;BME280;35209;51.050;13.678;2023-02-18T22:07:07;99855.75;;;9.01;100.00
49341;BME280;35209;51.050;13.678;2023-02-18T22:12:09;99849.59;;;9.02;100.00
49341;BME280;35209;51.050;13.678;2023-02-18T22:17:13;99860.69;;;9.12;100.00
49341;BME280;35209;51.050;13.678;2023-02-18T22:22:15;99857.06;;;9.16;100.00
49341;BME280;35209;51.050;13.678;2023-02-18T22:27:17;99860.09;;;9.32;97.64
49341;BME280;35209;51.050;13.678;2023-02-18T22:32:20;99860.81;;;9.39;96.04
49341;BME280;35209;51.050;13.678;2023-02-18T22:37:22;99869.09;;;9.23;99.53
49341;BME280;35209;51.050;13.678;2023-02-18T22:42:24;99859.00;;;9.09;100.00
49341;BME280;35209;51.050;13.678;2023-02-18T22:47:26;99873.50;;;8.92;100.00
49341;BME280;35209;51.050;13.678;2023-02-18T22:52:28;99867.09;;;9.02;100.00
49341;BME280;35209;51.050;13.678;2023-02-18T22:57:30;99871.53;;;8.98;100.00
49341;BME280;35209;51.050;13.678;2023-02-18T23:02:31;99860.50;;;8.87;100.00
49341;BME280;35209;51.050;13.678;2023-02-18T23:07:33;99860.19;;;8.99;100.00
49341;BME280;35209;51.050;13.678;2023-02-18T23:12:35;99872.31;;;9.02;100.00
49341;BME280;35209;51.050;13.678;2023-02-18T23:17:37;99875.66;;;9.08;100.00
49341;BME280;35209;51.050;13.678;2023-02-18T23:22:39;99866.94;;;9.06;100.00
49341;BME280;35209;51.050;13.678;2023-02-18T23:27:42;99864.19;;;9.11;100.00
49341;BME280;35209;51.050;13.678;2023-02-18T23:32:44;99860.84;;;9.07;98.93
49341;BME280;35209;51.050;13.678;2023-02-18T23:37:46;99863.00;;;9.23;98.60
49341;BME280;35209;51.050;13.678;2023-02-18T23:43:06;99857.06;;;9.16;98.99
49341;BME280;35209;51.050;13.678;2023-02-18T23:48:08;99851.13;;;9.09;99.55
49341;BME280;35209;51.050;13.678;2023-02-18T23:53:09;99850.09;;;9.15;98.98
49341;BME280;35209;51.050;13.678;2023-02-18T23:58:11;99844.97;;;9.12;99.29
